Time;durP1;ratioP1;P1;durP2;ratioP2;P2;SDS_P1;SDS_P2;PMS_P1;PMS_P2;Temp;Humidity;BMP_temperature;BMP_pressure;BME280_temperature;BME280_humidity;BME280_pressure;Samples;Min_cycle;Max_cycle;Signal;HPM_P1;HPM_P2
2022/01/21 00:00:26;;;;;;;26.13;2.72;;;2.40;99.90;;;;;;5048763;28;20041;-70
2022/01/21 00:02:52;;;;;;;29.85;3.20;;;2.30;99.90;;;;;;5066012;28;20045;-69
2022/01/21 00:05:18;;;;;;;22.13;3.10;;;2.20;99.90;;;;;;5052896;28;20045;-69
2022/01/21 00:07:44;;;;;;;29.75;2.78;;;2.10;99.90;;;;;;5052676;28;20053;-70
2022/01/21 00:10:10;;;;;;;32.08;2.67;;;2.10;99.90;;;;;;5049411;28;20045;-70
2022/01/21 00:12:36;;;;;;;31.95;3.30;;;2.10;99.90;;;;;;5050203;28;20044;-69
2022/01/21 00:15:05;;;;;;;13.50;2.50;;;2.00;99.90;;;;;;5053851;28;20051;-69
2022/01/21 00:17:30;;;;;;;16.02;2.20;;;2.00;99.90;;;;;;5053388;28;20452;-69
2022/01/21 00:31:03;;;;;;;22.08;1.98;;;2.10;99.90;;;;;;5072015;28;20122;-70
2022/01/21 00:33:28;;;;;;;12.30;1.75;;;2.20;99.90;;;;;;5060327;28;20041;-68
2022/01/21 00:35:54;;;;;;;15.07;2.13;;;2.20;99.90;;;;;;5070166;28;20041;-70
2022/01/21 00:38:22;;;;;;;11.07;1.45;;;2.30;99.90;;;;;;5075453;28;20040;-69
2022/01/21 00:40:48;;;;;;;11.32;1.30;;;2.40;99.90;;;;;;5091896;28;20126;-70
2022/01/21 00:43:28;;;;;;;18.90;1.92;;;2.40;99.90;;;;;;5075873;28;20075;-70
2022/01/21 00:45:53;;;;;;;14.48;1.75;;;2.40;99.90;;;;;;5066012;28;20041;-72
2022/01/21 00:48:19;;;;;;;21.23;2.15;;;2.40;99.90;;;;;;5093545;28;20123;-70
2022/01/21 00:50:47;;;;;;;16.30;2.10;;;2.40;99.90;;;;;;5052243;28;20043;-69
2022/01/21 00:53:13;;;;;;;29.02;2.50;;;2.30;99.90;;;;;;5052514;28;20479;-71
2022/01/21 00:55:38;;;;;;;25.10;2.33;;;2.20;99.90;;;;;;5052601;28;20036;-71
2022/01/21 00:58:04;;;;;;;20.33;1.55;;;2.10;99.90;;;;;;5056727;28;20040;-71
2022/01/21 01:00:31;;;;;;;19.05;2.17;;;2.00;99.90;;;;;;5069294;28;20547;-71
2022/01/21 01:02:57;;;;;;;20.08;2.20;;;1.90;99.90;;;;;;5068245;28;20044;-70
2022/01/21 01:05:23;;;;;;;18.40;2.25;;;1.90;99.90;;;;;;5062043;28;20037;-70
2022/01/21 01:07:49;;;;;;;24.35;2.08;;;1.80;99.90;;;;;;5056674;28;20095;-70
2022/01/21 01:10:23;;;;;;;19.95;2.13;;;1.80;99.90;;;;;;5051710;28;20068;-71
2022/01/21 01:13:01;;;;;;;17.48;2.25;;;1.70;99.90;;;;;;5059127;28;20079;-70
2022/01/21 01:20:55;;;;;;;16.63;1.80;;;1.80;99.90;;;;;;5086117;28;20071;-70
2022/01/21 01:23:28;;;;;;;19.90;2.28;;;1.80;99.90;;;;;;5052057;28;20045;-71
2022/01/21 01:28:41;;;;;;;19.17;1.58;;;1.90;99.90;;;;;;5070488;28;20102;-70
2022/01/21 01:31:07;;;;;;;22.27;3.42;;;1.80;99.90;;;;;;5071710;28;20036;-71
2022/01/21 01:33:36;;;;;;;20.70;2.25;;;1.80;99.90;;;;;;5071971;28;20074;-70
2022/01/21 01:36:04;;;;;;;21.73;2.30;;;1.80;99.90;;;;;;5075010;28;20500;-72
2022/01/21 01:38:57;;;;;;;20.27;2.05;;;1.80;99.90;;;;;;5072266;28;20074;-71
2022/01/21 01:41:22;;;;;;;21.50;3.15;;;1.90;99.90;;;;;;5073438;28;20040;-72
2022/01/21 01:52:14;;;;;;;17.30;1.67;;;1.90;99.90;;;;;;5043638;28;20037;-72
2022/01/21 01:54:42;;;;;;;14.68;1.88;;;1.90;99.90;;;;;;5079331;28;20045;-69
2022/01/21 01:57:08;;;;;;;13.13;2.30;;;1.90;99.90;;;;;;5084861;28;20051;-70
2022/01/21 01:59:34;;;;;;;26.02;1.92;;;2.00;99.90;;;;;;5087406;28;20502;-71
2022/01/21 02:02:06;;;;;;;15.23;2.00;;;2.00;99.90;;;;;;5072098;28;20043;-72
2022/01/21 02:04:32;;;;;;;25.33;2.53;;;2.10;99.90;;;;;;5070717;28;20229;-68
2022/01/21 02:06:57;;;;;;;28.40;3.22;;;2.10;99.90;;;;;;5067383;28;20299;-68
2022/01/21 02:09:24;;;;;;;9.85;0.90;;;2.20;99.90;;;;;;5050569;28;20087;-71
2022/01/21 02:11:50;;;;;;;18.35;1.45;;;2.20;99.90;;;;;;5054820;28;20060;-68
2022/01/21 02:14:22;;;;;;;23.05;2.38;;;2.10;99.90;;;;;;5048915;28;20079;-69
2022/01/21 02:22:14;;;;;;;22.25;1.80;;;2.00;99.90;;;;;;5090875;28;20523;-70
2022/01/21 02:24:58;;;;;;;21.88;2.00;;;1.90;99.90;;;;;;5087331;28;20165;-71
2022/01/21 02:27:24;;;;;;;25.17;2.50;;;1.90;99.90;;;;;;5058606;28;20056;-70
2022/01/21 02:29:54;;;;;;;14.13;1.48;;;1.80;99.90;;;;;;5061338;28;20044;-70
2022/01/21 02:32:21;;;;;;;14.65;1.80;;;1.80;99.90;;;;;;5070559;28;20368;-71
2022/01/21 02:34:48;;;;;;;16.10;2.10;;;1.70;99.90;;;;;;5102662;28;20040;-71
2022/01/21 02:37:16;;;;;;;19.00;2.30;;;1.60;99.90;;;;;;5055413;28;20116;-71
2022/01/21 02:39:42;;;;;;;21.27;2.22;;;1.70;99.90;;;;;;5048832;28;20415;-69
2022/01/21 02:42:08;;;;;;;17.35;1.75;;;1.60;99.90;;;;;;5064025;28;20068;-70
2022/01/21 02:44:34;;;;;;;17.58;1.92;;;1.50;99.90;;;;;;5066632;28;20518;-70
2022/01/21 02:47:02;;;;;;;14.15;2.08;;;1.50;99.90;;;;;;5061112;28;20037;-70
2022/01/21 02:49:28;;;;;;;21.23;1.67;;;1.50;99.90;;;;;;5053555;28;20395;-70
2022/01/21 02:51:56;;;;;;;16.27;2.25;;;1.60;99.90;;;;;;5065366;28;20170;-71
2022/01/21 02:54:21;;;;;;;28.48;2.85;;;1.60;99.90;;;;;;5061111;28;20456;-71
2022/01/21 02:56:48;;;;;;;24.27;2.10;;;1.70;99.90;;;;;;5074962;28;20040;-70
2022/01/21 02:59:14;;;;;;;23.55;2.25;;;1.70;99.90;;;;;;5090026;28;20520;-70
2022/01/21 03:01:42;;;;;;;16.63;2.33;;;1.80;99.90;;;;;;5062628;28;20095;-71
2022/01/21 03:04:14;;;;;;;26.40;2.97;;;1.80;99.90;;;;;;5095793;28;20062;-70
2022/01/21 03:06:39;;;;;;;18.38;2.83;;;1.80;99.90;;;;;;5058446;28;20049;-71
2022/01/21 03:09:07;;;;;;;18.38;3.33;;;1.80;99.90;;;;;;5058736;28;20155;-71
2022/01/21 03:11:33;;;;;;;24.33;2.97;;;1.80;99.90;;;;;;5069954;28;20457;-71
2022/01/21 03:13:59;;;;;;;23.83;2.63;;;1.70;99.90;;;;;;5053465;28;20044;-71
2022/01/21 03:16:25;;;;;;;18.58;2.75;;;1.60;99.90;;;;;;5062746;28;20085;-72
2022/01/21 03:18:51;;;;;;;20.85;2.28;;;1.60;99.90;;;;;;5050269;28;20407;-71
2022/01/21 03:21:17;;;;;;;21.25;2.22;;;1.60;99.90;;;;;;5056739;28;20144;-72
2022/01/21 03:23:48;;;;;;;19.73;2.70;;;1.50;99.90;;;;;;5053158;28;20077;-72
2022/01/21 03:26:15;;;;;;;18.30;2.40;;;1.50;99.90;;;;;;5083032;28;20041;-72
2022/01/21 03:28:42;;;;;;;15.75;2.22;;;1.40;99.90;;;;;;5055300;28;20039;-72
2022/01/21 03:31:08;;;;;;;26.42;2.83;;;1.40;99.90;;;;;;5069883;28;20511;-72
2022/01/21 03:33:33;;;;;;;25.85;2.88;;;1.30;99.90;;;;;;5069664;28;20040;-71
2022/01/21 03:35:59;;;;;;;20.73;2.42;;;1.20;99.90;;;;;;5070860;28;20040;-71
2022/01/21 03:38:27;;;;;;;19.67;2.50;;;1.20;99.90;;;;;;5050201;28;20045;-72
2022/01/21 03:40:54;;;;;;;19.17;2.88;;;1.30;99.90;;;;;;5049462;28;20056;-71
2022/01/21 03:43:21;;;;;;;23.90;2.70;;;1.20;99.90;;;;;;5049295;28;20403;-71
2022/01/21 03:45:48;;;;;;;21.15;2.40;;;1.30;99.90;;;;;;5050252;28;20514;-71
2022/01/21 03:48:15;;;;;;;17.15;3.03;;;1.30;99.90;;;;;;5084985;28;20045;-72
2022/01/21 03:50:42;;;;;;;21.92;2.65;;;1.30;99.90;;;;;;5052510;28;20068;-72
2022/01/21 03:53:07;;;;;;;18.92;2.42;;;1.30;99.90;;;;;;5037072;28;20037;-71
2022/01/21 03:55:34;;;;;;;15.73;2.00;;;1.30;99.90;;;;;;5056226;28;20040;-71
2022/01/21 03:58:01;;;;;;;18.08;2.33;;;1.30;99.90;;;;;;5068053;28;20033;-71
2022/01/21 04:00:30;;;;;;;21.10;2.50;;;1.20;99.90;;;;;;5075315;28;20127;-72
2022/01/21 04:02:57;;;;;;;20.85;2.40;;;1.20;99.90;;;;;;5055771;28;20032;-72
2022/01/21 04:05:23;;;;;;;31.30;2.28;;;1.20;99.90;;;;;;5071170;28;20044;-70
2022/01/21 04:07:48;;;;;;;16.08;1.92;;;1.20;99.90;;;;;;5072328;28;20082;-72
2022/01/21 04:10:14;;;;;;;21.13;3.13;;;1.20;99.90;;;;;;5055169;28;20399;-71
2022/01/21 04:12:40;;;;;;;23.60;3.15;;;1.20;99.90;;;;;;5071067;28;20043;-70
2022/01/21 04:15:07;;;;;;;18.27;3.05;;;1.20;99.90;;;;;;5055162;28;20123;-69
2022/01/21 04:17:37;;;;;;;15.00;1.67;;;1.20;99.90;;;;;;5089873;28;20065;-68
2022/01/21 04:20:04;;;;;;;15.35;2.03;;;1.30;99.90;;;;;;5069287;28;20040;-70
2022/01/21 04:22:30;;;;;;;17.17;1.90;;;1.30;99.90;;;;;;5067330;28;20041;-71
2022/01/21 04:24:57;;;;;;;19.60;2.17;;;1.30;99.90;;;;;;5090205;28;20033;-71
2022/01/21 04:27:22;;;;;;;16.83;3.00;;;1.30;99.90;;;;;;5069972;28;20052;-70
2022/01/21 04:29:48;;;;;;;21.45;2.55;;;1.30;99.90;;;;;;5086120;28;20037;-69
2022/01/21 04:32:15;;;;;;;18.38;2.28;;;1.20;99.90;;;;;;5061945;28;20474;-70
2022/01/21 04:34:41;;;;;;;25.55;2.13;;;1.20;99.90;;;;;;5097635;28;20371;-71
2022/01/21 04:37:10;;;;;;;17.50;2.33;;;1.20;99.90;;;;;;5092451;28;20104;-70
2022/01/21 04:39:44;;;;;;;20.17;2.05;;;1.30;99.90;;;;;;5074352;28;20119;-71
2022/01/21 04:47:42;;;;;;;17.70;2.08;;;1.40;99.90;;;;;;5052378;28;20511;-69
2022/01/21 04:50:13;;;;;;;27.38;2.70;;;1.40;99.90;;;;;;5065588;28;20032;-70
2022/01/21 04:52:39;;;;;;;17.17;2.20;;;1.50;99.90;;;;;;5063850;28;20114;-71
2022/01/21 04:55:06;;;;;;;11.10;1.23;;;1.50;99.90;;;;;;5071461;28;20045;-70
2022/01/21 04:57:31;;;;;;;16.05;2.08;;;1.50;99.90;;;;;;5086164;28;20048;-70
2022/01/21 04:59:57;;;;;;;19.92;2.25;;;1.60;99.90;;;;;;5066314;28;20051;-69
2022/01/21 05:02:26;;;;;;;11.65;2.15;;;1.50;99.90;;;;;;5054803;28;20101;-69
2022/01/21 05:04:52;;;;;;;13.57;1.52;;;1.60;99.90;;;;;;5071719;28;20048;-69
2022/01/21 05:07:22;;;;;;;16.48;2.10;;;1.60;99.90;;;;;;5071327;28;20056;-71
2022/01/21 05:09:47;;;;;;;19.33;2.47;;;1.50;99.90;;;;;;5088801;28;20044;-70
2022/01/21 05:12:18;;;;;;;17.45;1.90;;;1.50;99.90;;;;;;5069809;28;20039;-70
2022/01/21 05:17:22;;;;;;;17.13;1.88;;;1.40;99.90;;;;;;5071450;28;20502;-71
2022/01/21 05:19:48;;;;;;;21.88;1.67;;;1.40;99.90;;;;;;5070067;28;20486;-70
2022/01/21 05:22:14;;;;;;;16.00;1.52;;;1.40;99.90;;;;;;5054771;28;20047;-69
2022/01/21 05:24:39;;;;;;;17.90;2.45;;;1.40;99.90;;;;;;5072109;28;20149;-71
2022/01/21 05:27:06;;;;;;;20.25;2.38;;;1.40;99.90;;;;;;5082263;28;20039;-69
2022/01/21 05:29:34;;;;;;;13.88;1.38;;;1.40;99.90;;;;;;5075464;28;20509;-71
2022/01/21 05:32:01;;;;;;;14.43;1.85;;;1.50;99.90;;;;;;5105181;28;20106;-70
2022/01/21 05:34:26;;;;;;;15.93;1.75;;;1.50;99.90;;;;;;5043784;28;20095;-71
2022/01/21 05:36:52;;;;;;;17.80;1.77;;;1.40;99.90;;;;;;5071636;28;20044;-70
2022/01/21 05:39:18;;;;;;;15.45;1.48;;;1.50;99.90;;;;;;5071027;28;20131;-70
2022/01/21 05:41:48;;;;;;;11.15;2.22;;;1.40;99.90;;;;;;5052670;28;20037;-70
2022/01/21 05:46:22;;;;;;;15.85;2.10;;;1.50;99.90;;;;;;5053894;28;20048;-70
2022/01/21 05:47:04;;;;;;;21.10;2.13;;;1.50;99.90;;;;;;5071191;28;20102;-71
2022/01/21 05:49:32;;;;;;;22.63;2.67;;;1.50;99.90;;;;;;5075717;28;20054;-71
2022/01/21 05:52:08;;;;;;;15.73;2.58;;;1.50;99.90;;;;;;5070723;28;20040;-71
2022/01/21 05:54:34;;;;;;;26.25;2.53;;;1.50;99.90;;;;;;5065326;28;20032;-70
2022/01/21 05:57:04;;;;;;;17.70;2.13;;;1.60;99.90;;;;;;5052137;28;20561;-70
2022/01/21 05:59:29;;;;;;;14.10;2.05;;;1.60;99.90;;;;;;5092441;28;20049;-70
2022/01/21 06:01:55;;;;;;;12.25;1.90;;;1.60;99.90;;;;;;5070449;28;20037;-70
2022/01/21 06:04:21;;;;;;;21.80;2.28;;;1.60;99.90;;;;;;5064720;28;20391;-69
2022/01/21 06:06:46;;;;;;;21.60;2.25;;;1.60;99.90;;;;;;5065421;28;20041;-70
2022/01/21 06:09:12;;;;;;;12.65;1.58;;;1.60;99.90;;;;;;5058215;28;20049;-69
2022/01/21 06:11:38;;;;;;;15.07;1.80;;;1.60;99.90;;;;;;5084438;28;20044;-68
2022/01/21 06:14:04;;;;;;;11.48;1.42;;;1.60;99.90;;;;;;5051140;28;20045;-69
2022/01/21 06:16:30;;;;;;;18.58;2.58;;;1.60;99.90;;;;;;5044904;28;20126;-70
2022/01/21 06:18:56;;;;;;;13.13;2.22;;;1.60;99.90;;;;;;5068544;28;20047;-70
2022/01/21 06:21:22;;;;;;;17.67;2.05;;;1.60;99.90;;;;;;5079338;28;20043;-73
2022/01/21 06:23:48;;;;;;;19.45;1.85;;;1.70;99.90;;;;;;5068711;28;20746;-71
2022/01/21 06:26:14;;;;;;;18.60;2.17;;;1.80;99.90;;;;;;5058386;28;20037;-69
2022/01/21 06:28:40;;;;;;;23.98;1.35;;;1.80;99.90;;;;;;5078619;28;20063;-68
2022/01/21 06:31:05;;;;;;;16.48;1.80;;;1.80;99.90;;;;;;5061275;28;20044;-69
2022/01/21 06:33:31;;;;;;;12.45;1.70;;;1.90;99.90;;;;;;5056946;28;20079;-71
2022/01/21 06:35:57;;;;;;;19.02;2.10;;;1.90;99.90;;;;;;5061129;28;20296;-70
2022/01/21 06:38:22;;;;;;;11.80;1.30;;;1.90;99.90;;;;;;5057992;28;20052;-71
2022/01/21 06:40:49;;;;;;;13.50;1.90;;;2.00;99.90;;;;;;5071940;28;20044;-68
2022/01/21 06:43:15;;;;;;;15.00;1.90;;;2.00;99.90;;;;;;5071980;28;20089;-70
2022/01/21 06:45:42;;;;;;;18.15;1.52;;;2.00;99.90;;;;;;5063972;28;20084;-71
2022/01/21 06:48:07;;;;;;;12.00;1.95;;;2.10;99.90;;;;;;5039466;28;20033;-70
2022/01/21 06:50:36;;;;;;;22.13;2.85;;;2.10;99.90;;;;;;5089722;28;20090;-70
2022/01/21 06:53:02;;;;;;;13.18;1.63;;;2.10;99.90;;;;;;5058303;28;20045;-70
2022/01/21 06:55:28;;;;;;;18.33;2.33;;;2.10;99.90;;;;;;5061454;28;20094;-69
2022/01/21 06:57:53;;;;;;;16.50;2.47;;;2.00;99.90;;;;;;5075877;28;20130;-70
2022/01/21 07:00:20;;;;;;;20.95;2.55;;;2.00;99.90;;;;;;5058694;28;20045;-68
2022/01/21 07:02:49;;;;;;;19.40;2.72;;;2.00;99.90;;;;;;5061500;28;20354;-70
2022/01/21 07:05:16;;;;;;;17.27;2.17;;;2.00;99.90;;;;;;5069101;28;20060;-70
2022/01/21 07:07:42;;;;;;;11.95;1.67;;;1.90;99.90;;;;;;5058801;28;20445;-68
2022/01/21 07:10:11;;;;;;;13.40;1.88;;;1.90;99.90;;;;;;5056310;28;20179;-71
2022/01/21 07:12:36;;;;;;;14.93;2.03;;;1.90;99.90;;;;;;5059787;28;20840;-71
2022/01/21 07:15:04;;;;;;;11.75;2.00;;;1.80;99.90;;;;;;5077691;28;20122;-71
2022/01/21 07:17:29;;;;;;;17.60;1.63;;;1.80;99.90;;;;;;5077065;28;20040;-70
2022/01/21 07:19:55;;;;;;;6.57;1.83;;;1.80;99.90;;;;;;5065871;28;20048;-70
2022/01/21 07:22:21;;;;;;;12.43;1.58;;;1.80;99.90;;;;;;5067072;28;20041;-70
2022/01/21 07:24:47;;;;;;;17.33;1.98;;;1.80;99.90;;;;;;5065599;28;20037;-71
2022/01/21 07:27:12;;;;;;;12.68;2.20;;;1.80;99.90;;;;;;5067431;28;20043;-69
2022/01/21 07:29:38;;;;;;;11.05;1.52;;;1.80;99.90;;;;;;5058032;28;20028;-69
2022/01/21 07:32:04;;;;;;;16.98;2.88;;;1.80;99.90;;;;;;5051283;28;20377;-72
2022/01/21 07:34:30;;;;;;;11.98;2.50;;;1.80;99.90;;;;;;5065405;28;20072;-71
2022/01/21 07:36:55;;;;;;;13.75;1.98;;;1.80;99.90;;;;;;5043637;28;20063;-72
2022/01/21 07:39:21;;;;;;;14.68;2.08;;;1.70;99.90;;;;;;5064393;28;20086;-72
2022/01/21 07:41:47;;;;;;;16.35;2.42;;;1.60;99.90;;;;;;5071832;28;20047;-72
2022/01/21 07:44:13;;;;;;;13.82;2.10;;;1.60;99.90;;;;;;5072812;28;20100;-71
2022/01/21 07:46:39;;;;;;;16.38;2.25;;;1.60;99.90;;;;;;5085730;28;20048;-72
2022/01/21 07:49:05;;;;;;;19.23;2.83;;;1.50;99.90;;;;;;5062261;28;20024;-72
2022/01/21 07:51:31;;;;;;;23.20;2.90;;;1.50;99.90;;;;;;5054691;28;20041;-71
2022/01/21 07:53:56;;;;;;;14.82;2.47;;;1.50;99.90;;;;;;5078235;28;21398;-72
2022/01/21 07:56:23;;;;;;;21.98;2.80;;;1.50;99.90;;;;;;5063888;28;20507;-71
2022/01/21 07:58:49;;;;;;;17.05;3.17;;;1.40;99.90;;;;;;5061244;28;20044;-71
2022/01/21 08:01:14;;;;;;;22.88;3.30;;;1.50;99.90;;;;;;5061077;28;20032;-70
2022/01/21 08:03:40;;;;;;;19.52;3.60;;;1.50;99.90;;;;;;5081922;28;20042;-69
2022/01/21 08:06:05;;;;;;;20.10;3.25;;;1.50;99.90;;;;;;5040486;28;20044;-71
2022/01/21 08:08:31;;;;;;;18.17;3.33;;;1.50;99.90;;;;;;5082853;28;20036;-71
2022/01/21 08:10:57;;;;;;;26.17;3.08;;;1.50;99.90;;;;;;5058279;28;20063;-72
2022/01/21 08:13:23;;;;;;;21.15;2.25;;;1.50;99.90;;;;;;5083589;28;20071;-71
2022/01/21 08:15:48;;;;;;;13.00;2.20;;;1.60;99.90;;;;;;5078264;28;20032;-70
2022/01/21 08:18:15;;;;;;;13.00;2.05;;;1.60;99.90;;;;;;5084344;28;20044;-71
2022/01/21 08:20:42;;;;;;;18.50;2.75;;;1.70;99.90;;;;;;5061395;28;20039;-71
2022/01/21 08:23:08;;;;;;;15.27;2.22;;;1.80;99.90;;;;;;5065182;28;20029;-70
2022/01/21 08:25:33;;;;;;;18.67;3.03;;;1.80;99.90;;;;;;5060333;28;20070;-70
2022/01/21 08:27:59;;;;;;;19.42;4.22;;;1.80;99.90;;;;;;5067735;28;20040;-71
2022/01/21 08:30:25;;;;;;;27.42;3.65;;;1.80;99.90;;;;;;5057013;28;20446;-71
2022/01/21 08:32:50;;;;;;;18.70;3.03;;;1.80;99.90;;;;;;5076774;28;20365;-71
2022/01/21 08:35:16;;;;;;;22.05;3.75;;;1.80;99.90;;;;;;5094383;28;20036;-71
2022/01/21 08:37:41;;;;;;;21.25;3.45;;;1.80;99.90;;;;;;5047533;28;20036;-70
2022/01/21 08:40:08;;;;;;;19.13;3.08;;;1.80;99.90;;;;;;5055033;28;20048;-71
2022/01/21 08:42:34;;;;;;;27.88;3.65;;;1.70;99.90;;;;;;5079216;28;20083;-70
2022/01/21 08:45:00;;;;;;;26.80;3.25;;;1.80;99.90;;;;;;5094817;28;20127;-70
2022/01/21 08:47:25;;;;;;;27.27;3.50;;;1.90;99.90;;;;;;5075735;28;20123;-71
2022/01/21 08:49:52;;;;;;;27.95;3.33;;;2.00;99.90;;;;;;5071832;28;20040;-71
2022/01/21 08:52:23;;;;;;;26.88;3.53;;;2.00;99.90;;;;;;5052151;28;20102;-71
2022/01/21 08:54:49;;;;;;;25.83;3.63;;;2.10;99.90;;;;;;5058276;28;20036;-69
2022/01/21 08:57:16;;;;;;;27.90;3.85;;;2.10;99.90;;;;;;5081448;28;20037;-72
2022/01/21 08:59:42;;;;;;;29.83;3.33;;;2.10;99.90;;;;;;5066884;28;20028;-72
2022/01/21 09:02:08;;;;;;;25.95;3.17;;;2.20;99.90;;;;;;5048990;28;20040;-70
2022/01/21 09:04:34;;;;;;;24.90;2.75;;;2.20;99.90;;;;;;5066622;28;20040;-72
2022/01/21 09:07:00;;;;;;;24.88;3.00;;;2.20;99.90;;;;;;5067900;28;20071;-71
2022/01/21 09:09:25;;;;;;;18.52;2.97;;;2.30;99.90;;;;;;5051842;28;20029;-72
2022/01/21 09:11:53;;;;;;;21.25;2.90;;;2.40;99.90;;;;;;5066975;28;20216;-70
2022/01/21 09:14:19;;;;;;;31.58;3.40;;;2.50;99.90;;;;;;5072348;28;20490;-72
2022/01/21 09:16:45;;;;;;;21.15;2.42;;;2.60;99.90;;;;;;5058686;28;20163;-71
2022/01/21 09:19:11;;;;;;;22.27;2.47;;;2.70;99.90;;;;;;5064658;28;20037;-71
2022/01/21 09:21:38;;;;;;;18.13;1.90;;;2.80;99.90;;;;;;5087824;28;20069;-68
2022/01/21 09:24:05;;;;;;;12.52;1.88;;;2.90;99.90;;;;;;5068461;28;20055;-70
2022/01/21 09:26:31;;;;;;;21.45;3.38;;;3.10;99.90;;;;;;5093583;28;20052;-68
2022/01/21 09:28:59;;;;;;;7.30;1.55;;;3.30;99.90;;;;;;5062130;28;20037;-69
2022/01/21 09:31:25;;;;;;;21.00;3.50;;;3.40;99.90;;;;;;5072092;28;20567;-68
2022/01/21 09:33:51;;;;;;;24.50;2.78;;;3.50;99.90;;;;;;5068865;28;20036;-69
2022/01/21 09:36:19;;;;;;;11.77;2.10;;;3.60;99.90;;;;;;5071391;28;20401;-69
2022/01/21 09:38:45;;;;;;;28.05;3.40;;;3.60;99.90;;;;;;5070512;28;20063;-71
2022/01/21 09:41:11;;;;;;;17.17;3.17;;;3.70;99.90;;;;;;5071905;28;20502;-71
2022/01/21 09:43:39;;;;;;;14.88;2.15;;;3.70;99.90;;;;;;5070592;28;20048;-68
2022/01/21 09:46:07;;;;;;;29.48;4.20;;;3.70;99.90;;;;;;5070590;28;20376;-70
2022/01/21 09:48:48;;;;;;;19.50;2.42;;;3.70;99.90;;;;;;5063836;28;20041;-70
2022/01/21 09:51:14;;;;;;;25.00;3.67;;;3.80;99.90;;;;;;5058802;28;20042;-69
2022/01/21 09:53:41;;;;;;;36.65;3.22;;;3.80;99.90;;;;;;5050335;28;20120;-71
2022/01/21 09:56:06;;;;;;;36.90;4.15;;;3.80;99.90;;;;;;5067697;28;20045;-70
2022/01/21 09:58:32;;;;;;;31.58;3.67;;;3.90;99.90;;;;;;5062445;28;20055;-71
2022/01/21 10:01:06;;;;;;;27.23;4.32;;;4.00;99.90;;;;;;5089972;28;20093;-69
2022/01/21 10:03:33;;;;;;;30.60;4.30;;;4.10;99.90;;;;;;5035516;28;20104;-71
2022/01/21 10:06:00;;;;;;;31.17;3.20;;;4.10;99.90;;;;;;5043520;28;20040;-70
2022/01/21 10:08:26;;;;;;;25.58;3.60;;;4.10;99.90;;;;;;5058134;28;20051;-71
2022/01/21 10:10:51;;;;;;;29.90;4.20;;;4.10;99.90;;;;;;5051467;28;20037;-71
2022/01/21 10:13:19;;;;;;;23.50;3.30;;;4.10;99.90;;;;;;5033604;28;20041;-71
2022/01/21 10:15:46;;;;;;;37.70;4.20;;;4.20;99.90;;;;;;5048761;28;20044;-71
2022/01/21 10:18:14;;;;;;;40.20;4.72;;;4.20;99.90;;;;;;5084110;28;20532;-72
2022/01/21 10:21:10;;;;;;;28.02;4.88;;;4.30;99.90;;;;;;5061043;28;20037;-72
2022/01/21 10:23:38;;;;;;;26.83;4.53;;;4.40;99.90;;;;;;5050052;28;20432;-71
2022/01/21 10:26:12;;;;;;;26.85;4.95;;;4.40;99.90;;;;;;5049303;28;20116;-72
2022/01/21 10:28:40;;;;;;;30.67;5.10;;;4.50;99.90;;;;;;5082819;28;20071;-71
2022/01/21 10:31:17;;;;;;;32.05;5.22;;;4.50;99.90;;;;;;5034806;28;20111;-71
2022/01/21 10:33:56;;;;;;;31.30;5.85;;;4.50;99.90;;;;;;5068203;28;20548;-72
2022/01/21 10:36:30;;;;;;;42.47;6.13;;;4.60;99.90;;;;;;5069920;28;20037;-71
2022/01/21 10:39:07;;;;;;;33.38;8.07;;;4.70;99.90;;;;;;5065884;28;20036;-71
2022/01/21 10:41:36;;;;;;;45.42;7.53;;;4.80;99.90;;;;;;5069914;28;20086;-72
2022/01/21 10:44:06;;;;;;;44.20;7.88;;;4.90;99.90;;;;;;5067087;28;20036;-72
2022/01/21 10:46:32;;;;;;;39.35;6.20;;;5.00;99.90;;;;;;5052817;28;20098;-71
2022/01/21 10:49:02;;;;;;;40.53;8.27;;;5.10;99.90;;;;;;5067715;28;20032;-70
2022/01/21 10:51:31;;;;;;;42.00;5.53;;;5.20;99.90;;;;;;5069517;28;20037;-71
2022/01/21 10:53:58;;;;;;;32.08;5.25;;;5.30;99.90;;;;;;5066886;28;20039;-72
2022/01/21 10:56:25;;;;;;;37.55;5.15;;;5.50;99.90;;;;;;5082164;28;20052;-72
2022/01/21 10:58:53;;;;;;;37.33;5.32;;;5.60;99.90;;;;;;5064100;28;20036;-73
2022/01/21 11:01:24;;;;;;;16.88;2.65;;;5.70;99.90;;;;;;5061958;28;20048;-70
2022/01/21 11:03:58;;;;;;;33.72;4.00;;;5.80;99.90;;;;;;5064985;28;20041;-73
2022/01/21 11:06:26;;;;;;;35.20;4.35;;;5.90;99.90;;;;;;5060522;28;20054;-71
2022/01/21 11:09:21;;;;;;;36.75;4.22;;;6.00;99.90;;;;;;5061937;28;20063;-70
2022/01/21 11:12:05;;;;;;;17.58;2.58;;;6.10;99.90;;;;;;5060330;28;20033;-67
2022/01/21 11:14:30;;;;;;;23.10;3.40;;;6.20;99.90;;;;;;5103389;28;20048;-69
2022/01/21 11:17:09;;;;;;;20.80;3.33;;;6.40;99.90;;;;;;5062533;28;20515;-69
2022/01/21 11:19:36;;;;;;;28.95;4.72;;;6.40;99.90;;;;;;5059208;28;20048;-69
2022/01/21 11:22:04;;;;;;;17.98;4.22;;;6.60;99.90;;;;;;5053821;28;20044;-72
2022/01/21 11:24:30;;;;;;;13.13;2.00;;;6.70;99.90;;;;;;5056265;28;20235;-70
2022/01/21 11:27:08;;;;;;;18.60;2.30;;;6.80;99.90;;;;;;5053884;28;20060;-72
2022/01/21 11:29:34;;;;;;;25.60;3.63;;;6.90;99.90;;;;;;5065553;28;20039;-71
2022/01/21 11:32:01;;;;;;;14.38;2.05;;;6.90;99.90;;;;;;5051571;28;20041;-69
2022/01/21 11:34:26;;;;;;;10.27;1.65;;;7.00;99.90;;;;;;5032971;28;20502;-72
2022/01/21 11:36:53;;;;;;;15.95;1.80;;;6.90;99.90;;;;;;5052754;28;20127;-71
2022/01/21 11:39:23;;;;;;;12.60;1.77;;;7.00;99.90;;;;;;5072874;28;20399;-72
2022/01/21 11:41:51;;;;;;;18.73;2.83;;;6.90;99.90;;;;;;5060491;28;20036;-70
2022/01/21 11:44:20;;;;;;;10.90;1.83;;;6.90;99.90;;;;;;5058559;28;20076;-70
2022/01/21 11:47:13;;;;;;;19.48;2.40;;;6.90;99.90;;;;;;5082096;28;20037;-68
2022/01/21 11:49:53;;;;;;;20.02;2.90;;;7.00;99.90;;;;;;5066116;28;20055;-69
2022/01/21 11:52:19;;;;;;;11.40;2.25;;;7.00;99.90;;;;;;5086681;28;20064;-69
2022/01/21 11:54:46;;;;;;;11.40;2.15;;;7.00;99.90;;;;;;5082791;28;20480;-71
2022/01/21 11:57:12;;;;;;;12.32;1.92;;;7.10;99.90;;;;;;5101106;28;20040;-70
2022/01/21 12:02:28;;;;;;;19.38;2.17;;;7.10;99.90;;;;;;5068801;28;20528;-68
2022/01/21 12:05:06;;;;;;;15.70;2.05;;;7.10;99.90;;;;;;5063828;28;20511;-71
2022/01/21 12:07:44;;;;;;;24.05;3.03;;;7.10;99.90;;;;;;5063935;28;20048;-73
2022/01/21 12:10:21;;;;;;;25.58;2.72;;;7.10;99.90;;;;;;5069941;28;20032;-73
2022/01/21 12:13:00;;;;;;;13.02;1.98;;;7.00;99.90;;;;;;5091847;28;20040;-69
2022/01/21 12:18:55;;;;;;;9.60;1.88;;;7.00;99.90;;;;;;5077157;28;20052;-67
2022/01/21 12:21:36;;;;;;;9.63;1.77;;;7.00;99.90;;;;;;5086305;28;20049;-68
2022/01/21 12:24:03;;;;;;;18.52;2.38;;;7.00;99.90;;;;;;5086475;28;20092;-69
2022/01/21 12:26:30;;;;;;;15.50;2.47;;;7.00;99.90;;;;;;5056236;28;20148;-70
2022/01/21 12:28:58;;;;;;;19.67;1.88;;;7.00;99.90;;;;;;5085312;28;20094;-70
2022/01/21 12:32:05;;;;;;;16.45;1.83;;;7.10;99.90;;;;;;5086469;28;20048;-70
2022/01/21 12:35:00;;;;;;;15.18;1.73;;;7.00;99.90;;;;;;5050982;28;20059;-69
2022/01/21 12:37:39;;;;;;;10.48;1.50;;;7.00;99.90;;;;;;5055315;28;20044;-68
2022/01/21 12:40:05;;;;;;;16.63;2.88;;;7.00;99.90;;;;;;5072282;28;20048;-70
2022/01/21 12:42:35;;;;;;;22.20;1.98;;;7.00;99.90;;;;;;5072526;28;20050;-68
2022/01/21 12:45:07;;;;;;;9.40;1.63;;;7.10;99.90;;;;;;5060383;28;20048;-71
2022/01/21 12:47:37;;;;;;;15.70;2.13;;;7.10;99.90;;;;;;5060431;28;20040;-71
2022/01/21 12:50:15;;;;;;;13.68;2.45;;;7.10;99.90;;;;;;5087832;28;20471;-68
2022/01/21 12:52:47;;;;;;;15.30;2.67;;;7.20;99.90;;;;;;5059478;28;20116;-68
2022/01/21 12:58:24;;;;;;;13.60;2.85;;;7.20;99.90;;;;;;5066211;28;20097;-68
2022/01/21 13:00:58;;;;;;;15.35;1.85;;;7.20;99.90;;;;;;5071182;28;20703;-70
2022/01/21 13:03:26;;;;;;;16.17;2.20;;;7.20;99.90;;;;;;5071590;28;20078;-68
2022/01/21 13:06:15;;;;;;;15.90;2.53;;;7.20;99.90;;;;;;5058187;28;20063;-68
2022/01/21 13:08:58;;;;;;;11.45;1.80;;;7.20;99.90;;;;;;5089514;28;20496;-70
2022/01/21 13:11:25;;;;;;;11.88;1.80;;;7.20;99.90;;;;;;5072015;28;20075;-72
2022/01/21 13:14:34;;;;;;;13.45;2.25;;;7.10;99.90;;;;;;5066163;28;20089;-71
2022/01/21 13:17:09;;;;;;;18.65;1.80;;;7.20;99.90;;;;;;5071679;28;20110;-70
2022/01/21 13:19:50;;;;;;;16.90;2.53;;;7.10;99.90;;;;;;5062900;28;20045;-69
2022/01/21 13:22:25;;;;;;;19.08;2.22;;;7.10;99.90;;;;;;5053894;28;20475;-73
2022/01/21 13:25:08;;;;;;;20.45;2.22;;;7.10;99.90;;;;;;5050443;28;20049;-70
2022/01/21 13:27:42;;;;;;;13.38;1.90;;;7.10;99.90;;;;;;5075844;28;20371;-69
2022/01/21 13:30:10;;;;;;;18.67;2.45;;;7.10;99.90;;;;;;5083613;28;20048;-69
2022/01/21 13:32:36;;;;;;;19.38;2.67;;;7.10;99.90;;;;;;5055812;28;20064;-74
2022/01/21 13:35:23;;;;;;;16.08;3.05;;;7.20;99.90;;;;;;5084909;28;20367;-69
2022/01/21 13:38:12;;;;;;;17.85;2.88;;;7.10;99.90;;;;;;5051213;28;20086;-71
2022/01/21 13:40:42;;;;;;;21.40;2.95;;;7.20;99.90;;;;;;5084618;28;20053;-70
2022/01/21 13:43:31;;;;;;;22.98;2.58;;;7.20;99.90;;;;;;5098701;28;20583;-69
2022/01/21 13:46:01;;;;;;;17.20;2.42;;;7.10;99.90;;;;;;5087910;28;20170;-71